sensor_id;sensor_type;location;lat;lon;timestamp;pressure;altitude;pressure_sealevel;temperature;humidity
818;BME280;391;51.052;6.954;2023-08-01T00:00:18;99270.50;;;16.75;100.00
818;BME280;391;51.052;6.954;2023-08-01T00:02:22;99285.41;;;16.76;100.00
818;BME280;391;51.052;6.954;2023-08-01T00:04:27;99281.88;;;16.77;100.00
818;BME280;391;51.052;6.954;2023-08-01T00:06:31;99277.50;;;16.76;100.00
818;BME280;391;51.052;6.954;2023-08-01T00:08:34;99281.88;;;16.77;100.00
818;BME280;391;51.052;6.954;2023-08-01T00:10:38;99275.69;;;16.78;100.00
818;BME280;391;51.052;6.954;2023-08-01T00:12:41;99249.63;;;16.68;100.00
818;BME280;391;51.052;6.954;2023-08-01T00:14:43;99267.78;;;16.80;100.00
818;BME280;391;51.052;6.954;2023-08-01T00:16:47;99258.16;;;16.79;100.00
818;BME280;391;51.052;6.954;2023-08-01T00:18:50;99261.69;;;16.78;100.00
818;BME280;391;51.052;6.954;2023-08-01T00:20:55;99268.66;;;16.80;100.00
818;BME280;391;51.052;6.954;2023-08-01T00:22:58;99255.44;;;16.82;100.00
818;BME280;391;51.052;6.954;2023-08-01T00:25:02;99155.91;;;16.15;100.00
818;BME280;391;51.052;6.954;2023-08-01T00:27:06;99254.63;;;16.81;100.00
818;BME280;391;51.052;6.954;2023-08-01T00:29:11;99240.59;;;16.81;100.00
818;BME280;391;51.052;6.954;2023-08-01T00:31:14;99239.72;;;16.79;100.00
818;BME280;391;51.052;6.954;2023-08-01T00:33:18;99234.50;;;16.77;100.00
818;BME280;391;51.052;6.954;2023-08-01T00:35:21;99210.06;;;16.71;100.00
818;BME280;391;51.052;6.954;2023-08-01T00:37:26;99213.53;;;16.73;100.00
818;BME280;391;51.052;6.954;2023-08-01T00:39:29;99222.44;;;16.67;100.00
818;BME280;391;51.052;6.954;2023-08-01T00:41:32;99241.69;;;16.69;100.00
818;BME280;391;51.052;6.954;2023-08-01T00:43:36;99225.25;;;16.57;100.00
818;BME280;391;51.052;6.954;2023-08-01T00:45:39;99250.38;;;16.73;100.00
818;BME280;391;51.052;6.954;2023-08-01T00:47:43;99237.19;;;16.74;100.00
818;BME280;391;51.052;6.954;2023-08-01T00:49:46;99210.88;;;16.74;100.00
818;BME280;391;51.052;6.954;2023-08-01T00:51:50;99176.69;;;16.73;100.00
818;BME280;391;51.052;6.954;2023-08-01T00:53:55;99189.03;;;16.69;100.00
818;BME280;391;51.052;6.954;2023-08-01T00:55:58;99180.25;;;16.72;100.00
818;BME280;391;51.052;6.954;2023-08-01T00:58:02;99192.47;;;16.73;100.00
818;BME280;391;51.052;6.954;2023-08-01T01:00:05;99195.09;;;16.74;100.00
818;BME280;391;51.052;6.954;2023-08-01T01:02:09;99182.75;;;16.76;100.00
818;BME280;391;51.052;6.954;2023-08-01T01:04:14;99178.31;;;16.78;100.00
818;BME280;391;51.052;6.954;2023-08-01T01:06:24;99174.84;;;16.76;100.00
818;BME280;391;51.052;6.954;2023-08-01T01:08:29;99183.63;;;16.77;100.00
818;BME280;391;51.052;6.954;2023-08-01T01:10:34;99167.78;;;16.78;100.00
818;BME280;391;51.052;6.954;2023-08-01T01:12:38;99166.03;;;16.79;100.00
818;BME280;391;51.052;6.954;2023-08-01T01:14:40;99156.34;;;16.81;100.00
818;BME280;391;51.052;6.954;2023-08-01T01:16:44;99163.31;;;16.83;100.00
818;BME280;391;51.052;6.954;2023-08-01T01:18:47;99155.47;;;16.80;100.00
818;BME280;391;51.052;6.954;2023-08-01T01:20:52;99170.31;;;16.84;100.00
818;BME280;391;51.052;6.954;2023-08-01T01:22:56;99178.16;;;16.86;100.00
818;BME280;391;51.052;6.954;2023-08-01T01:24:59;99181.66;;;16.86;100.00
818;BME280;391;51.052;6.954;2023-08-01T01:27:05;99173.84;;;16.83;100.00
818;BME280;391;51.052;6.954;2023-08-01T01:29:11;99153.13;;;16.68;100.00
818;BME280;391;51.052;6.954;2023-08-01T01:31:15;99173.91;;;16.79;100.00
818;BME280;391;51.052;6.954;2023-08-01T01:33:18;99168.63;;;16.80;100.00
818;BME280;391;51.052;6.954;2023-08-01T01:35:22;99165.16;;;16.78;100.00
818;BME280;391;51.052;6.954;2023-08-01T01:37:27;99164.25;;;16.81;100.00
818;BME280;391;51.052;6.954;2023-08-01T01:39:29;99174.72;;;16.82;100.00
818;BME280;391;51.052;6.954;2023-08-01T01:41:33;99172.94;;;16.84;100.00
818;BME280;391;51.052;6.954;2023-08-01T01:43:35;99173.84;;;16.82;100.00
818;BME280;391;51.052;6.954;2023-08-01T01:45:40;99157.25;;;16.80;100.00
818;BME280;391;51.052;6.954;2023-08-01T01:47:44;99138.00;;;16.76;100.00
818;BME280;391;51.052;6.954;2023-08-01T01:49:48;99148.59;;;16.75;100.00
818;BME280;391;51.052;6.954;2023-08-01T01:51:51;99158.25;;;16.74;100.00
818;BME280;391;51.052;6.954;2023-08-01T01:53:56;99162.63;;;16.74;100.00
818;BME280;391;51.052;6.954;2023-08-01T01:55:59;99148.59;;;16.75;100.00
818;BME280;391;51.052;6.954;2023-08-01T01:58:03;99145.16;;;16.71;100.00
818;BME280;391;51.052;6.954;2023-08-01T02:00:08;99145.16;;;16.71;100.00
818;BME280;391;51.052;6.954;2023-08-01T02:02:15;99153.00;;;16.73;100.00
818;BME280;391;51.052;6.954;2023-08-01T02:04:19;99152.97;;;16.74;100.00
818;BME280;391;51.052;6.954;2023-08-01T02:06:22;99163.53;;;16.73;100.00
818;BME280;391;51.052;6.954;2023-08-01T02:08:26;99157.44;;;16.71;100.00
818;BME280;391;51.052;6.954;2023-08-01T02:10:30;99155.63;;;16.73;100.00
818;BME280;391;51.052;6.954;2023-08-01T02:12:33;99153.13;;;16.68;100.00
818;BME280;391;51.052;6.954;2023-08-01T02:14:38;99154.00;;;16.67;100.00
818;BME280;391;51.052;6.954;2023-08-01T02:16:42;99154.75;;;16.72;100.00
818;BME280;391;51.052;6.954;2023-08-01T02:18:45;99155.69;;;16.70;100.00
818;BME280;391;51.052;6.954;2023-08-01T02:20:48;99161.81;;;16.72;100.00
818;BME280;391;51.052;6.954;2023-08-01T02:22:52;99161.84;;;16.70;100.00
818;BME280;391;51.052;6.954;2023-08-01T02:24:56;99155.75;;;16.67;100.00
818;BME280;391;51.052;6.954;2023-08-01T02:27:00;99164.47;;;16.69;100.00
818;BME280;391;51.052;6.954;2023-08-01T02:29:04;99165.41;;;16.68;100.00
818;BME280;391;51.052;6.954;2023-08-01T02:31:06;99165.47;;;16.63;100.00
818;BME280;391;51.052;6.954;2023-08-01T02:33:10;99168.13;;;16.63;100.00
818;BME280;391;51.052;6.954;2023-08-01T02:35:14;99166.34;;;16.64;100.00
818;BME280;391;51.052;6.954;2023-08-01T02:37:17;99160.22;;;16.63;100.00
818;BME280;391;51.052;6.954;2023-08-01T02:39:21;99162.03;;;16.60;100.00
818;BME280;391;51.052;6.954;2023-08-01T02:41:24;99169.88;;;16.63;100.00
818;BME280;391;51.052;6.954;2023-08-01T02:43:29;99156.84;;;16.58;100.00
818;BME280;391;51.052;6.954;2023-08-01T02:45:32;99161.16;;;16.61;100.00
818;BME280;391;51.052;6.954;2023-08-01T02:47:36;99173.44;;;16.60;100.00
818;BME280;391;51.052;6.954;2023-08-01T02:49:39;99165.59;;;16.59;100.00
818;BME280;391;51.052;6.954;2023-08-01T02:51:43;99170.00;;;16.58;100.00
818;BME280;391;51.052;6.954;2023-08-01T02:53:46;99170.03;;;16.54;100.00
818;BME280;391;51.052;6.954;2023-08-01T02:55:50;99161.34;;;16.50;100.00
818;BME280;391;51.052;6.954;2023-08-01T02:57:53;99163.91;;;16.53;100.00
818;BME280;391;51.052;6.954;2023-08-01T02:59:58;99159.50;;;16.54;100.00
818;BME280;391;51.052;6.954;2023-08-01T03:02:02;99170.97;;;16.51;100.00
818;BME280;391;51.052;6.954;2023-08-01T03:04:06;99169.28;;;16.49;100.00
818;BME280;391;51.052;6.954;2023-08-01T03:06:10;99164.16;;;16.41;100.00
818;BME280;391;51.052;6.954;2023-08-01T03:08:14;99171.06;;;16.47;100.00
818;BME280;391;51.052;6.954;2023-08-01T03:10:18;99176.34;;;16.45;100.00
818;BME280;391;51.052;6.954;2023-08-01T03:12:36;99178.13;;;16.45;100.00
818;BME280;391;51.052;6.954;2023-08-01T03:14:40;99179.88;;;16.44;100.00
818;BME280;391;51.052;6.954;2023-08-01T03:16:47;99188.72;;;16.40;100.00
818;BME280;391;51.052;6.954;2023-08-01T03:18:51;99191.34;;;16.41;100.00
818;BME280;391;51.052;6.954;2023-08-01T03:20:54;99177.31;;;16.41;100.00
818;BME280;391;51.052;6.954;2023-08-01T03:22:59;99197.47;;;16.40;100.00
818;BME280;391;51.052;6.954;2023-08-01T03:25:02;99186.06;;;16.41;100.00
818;BME280;391;51.052;6.954;2023-08-01T03:27:09;99196.66;;;16.38;100.00
818;BME280;391;51.052;6.954;2023-08-01T03:29:13;99192.34;;;16.34;100.00
818;BME280;391;51.052;6.954;2023-08-01T03:31:16;99202.03;;;16.32;100.00
818;BME280;391;51.052;6.954;2023-08-01T03:33:21;99203.78;;;16.33;100.00
818;BME280;391;51.052;6.954;2023-08-01T03:35:24;99211.69;;;16.32;100.00
818;BME280;391;51.052;6.954;2023-08-01T03:37:28;99208.25;;;16.28;100.00
818;BME280;391;51.052;6.954;2023-08-01T03:39:31;99203.09;;;16.22;100.00
818;BME280;391;51.052;6.954;2023-08-01T03:41:34;99212.75;;;16.22;100.00
818;BME280;391;51.052;6.954;2023-08-01T03:43:38;99217.25;;;16.17;100.00
818;BME280;391;51.052;6.954;2023-08-01T03:45:41;99211.16;;;16.13;100.00
818;BME280;391;51.052;6.954;2023-08-01T03:47:45;99220.84;;;16.11;100.00
818;BME280;391;51.052;6.954;2023-08-01T03:49:50;99220.84;;;16.11;100.00
818;BME280;391;51.052;6.954;2023-08-01T03:51:53;99220.88;;;16.10;100.00
818;BME280;391;51.052;6.954;2023-08-01T03:54:01;99227.13;;;16.04;100.00
818;BME280;391;51.052;6.954;2023-08-01T03:56:15;99240.28;;;16.03;100.00
818;BME280;391;51.052;6.954;2023-08-01T03:58:18;99244.75;;;15.98;100.00
818;BME280;391;51.052;6.954;2023-08-01T04:00:22;99239.53;;;15.95;100.00
818;BME280;391;51.052;6.954;2023-08-01T04:02:26;99235.22;;;15.91;100.00
818;BME280;391;51.052;6.954;2023-08-01T04:04:29;99236.16;;;15.86;100.00
818;BME280;391;51.052;6.954;2023-08-01T04:06:34;99235.22;;;15.91;100.00
818;BME280;391;51.052;6.954;2023-08-01T04:08:37;99249.25;;;15.91;100.00
818;BME280;391;51.052;6.954;2023-08-01T04:10:41;99244.97;;;15.84;100.00
818;BME280;391;51.052;6.954;2023-08-01T04:12:44;99252.03;;;15.82;100.00
818;BME280;391;51.052;6.954;2023-08-01T04:14:48;99246.78;;;15.82;100.00
818;BME280;391;51.052;6.954;2023-08-01T04:16:54;99250.22;;;15.84;100.00
818;BME280;391;51.052;6.954;2023-08-01T04:18:58;99242.56;;;15.72;100.00
818;BME280;391;51.052;6.954;2023-08-01T04:21:02;99255.63;;;15.75;100.00
818;BME280;391;51.052;6.954;2023-08-01T04:23:07;99248.63;;;15.75;100.00
818;BME280;391;51.052;6.954;2023-08-01T04:25:10;99242.56;;;15.70;100.00
818;BME280;391;51.052;6.954;2023-08-01T04:27:13;99246.91;;;15.73;100.00
818;BME280;391;51.052;6.954;2023-08-01T04:29:17;99244.41;;;15.65;100.00
818;BME280;391;51.052;6.954;2023-08-01T04:31:20;99244.41;;;15.65;100.00
818;BME280;391;51.052;6.954;2023-08-01T04:33:24;99253.13;;;15.69;100.00
818;BME280;391;51.052;6.954;2023-08-01T04:35:27;99250.53;;;15.64;100.00
818;BME280;391;51.052;6.954;2023-08-01T04:37:31;99248.78;;;15.65;100.00
818;BME280;391;51.052;6.954;2023-08-01T04:39:35;99252.28;;;15.64;100.00
818;BME280;391;51.052;6.954;2023-08-01T04:41:38;99248.00;;;15.58;100.00
818;BME280;391;51.052;6.954;2023-08-01T04:43:41;99252.28;;;15.64;100.00
818;BME280;391;51.052;6.954;2023-08-01T04:45:45;99254.09;;;15.62;100.00
818;BME280;391;51.052;6.954;2023-08-01T04:47:49;99257.56;;;15.64;100.00
818;BME280;391;51.052;6.954;2023-08-01T04:49:52;99257.59;;;15.61;100.00
818;BME280;391;51.052;6.954;2023-08-01T04:51:55;99253.13;;;15.67;100.00
818;BME280;391;51.052;6.954;2023-08-01T04:53:59;99257.56;;;15.64;100.00
818;BME280;391;51.052;6.954;2023-08-01T04:56:05;99260.16;;;15.65;100.00
818;BME280;391;51.052;6.954;2023-08-01T04:58:08;99262.81;;;15.64;100.00
818;BME280;391;51.052;6.954;2023-08-01T05:00:14;99245.47;;;15.54;100.00
818;BME280;391;51.052;6.954;2023-08-01T05:02:17;99237.56;;;15.55;100.00
818;BME280;391;51.052;6.954;2023-08-01T05:04:21;99265.38;;;15.67;100.00
818;BME280;391;51.052;6.954;2023-08-01T05:06:25;99260.22;;;15.62;100.00
818;BME280;391;51.052;6.954;2023-08-01T05:08:30;99258.53;;;15.58;100.00
818;BME280;391;51.052;6.954;2023-08-01T05:10:33;99260.22;;;15.61;100.00
818;BME280;391;51.052;6.954;2023-08-01T05:12:38;99259.34;;;15.63;100.00
818;BME280;391;51.052;6.954;2023-08-01T05:14:42;99258.56;;;15.55;100.00
818;BME280;391;51.052;6.954;2023-08-01T05:16:46;99260.22;;;15.61;100.00
818;BME280;391;51.052;6.954;2023-08-01T05:18:49;99272.50;;;15.60;100.00
818;BME280;391;51.052;6.954;2023-08-01T05:20:53;99268.09;;;15.62;100.00
818;BME280;391;51.052;6.954;2023-08-01T05:22:57;99270.78;;;15.59;100.00
818;BME280;391;51.052;6.954;2023-08-01T05:25:01;99245.53;;;15.46;100.00
818;BME280;391;51.052;6.954;2023-08-01T05:27:06;99255.09;;;15.53;100.00
818;BME280;391;51.052;6.954;2023-08-01T05:29:13;99252.56;;;15.46;100.00
818;BME280;391;51.052;6.954;2023-08-01T05:31:15;99278.66;;;15.58;100.00
818;BME280;391;51.052;6.954;2023-08-01T05:33:19;99282.13;;;15.61;100.00
818;BME280;391;51.052;6.954;2023-08-01T05:35:22;99285.59;;;15.63;100.00
818;BME280;391;51.052;6.954;2023-08-01T05:37:26;99288.19;;;15.66;100.00
818;BME280;391;51.052;6.954;2023-08-01T05:39:29;99289.94;;;15.66;100.00
818;BME280;391;51.052;6.954;2023-08-01T05:41:32;99293.44;;;15.65;100.00
818;BME280;391;51.052;6.954;2023-08-01T05:43:36;99314.44;;;15.68;100.00
818;BME280;391;51.052;6.954;2023-08-01T05:45:41;99317.06;;;15.68;100.00
818;BME280;391;51.052;6.954;2023-08-01T05:47:45;99301.44;;;15.57;100.00
818;BME280;391;51.052;6.954;2023-08-01T05:49:48;99324.06;;;15.67;100.00
818;BME280;391;51.052;6.954;2023-08-01T05:51:52;99326.72;;;15.66;100.00
818;BME280;391;51.052;6.954;2023-08-01T05:53:55;99315.41;;;15.61;100.00
818;BME280;391;51.052;6.954;2023-08-01T05:55:59;99316.31;;;15.58;100.00
818;BME280;391;51.052;6.954;2023-08-01T05:58:02;99319.72;;;15.66;100.00
818;BME280;391;51.052;6.954;2023-08-01T06:00:07;99304.97;;;15.55;100.00
818;BME280;391;51.052;6.954;2023-08-01T06:02:14;99326.69;;;15.67;100.00
818;BME280;391;51.052;6.954;2023-08-01T06:04:18;99321.47;;;15.66;100.00
818;BME280;391;51.052;6.954;2023-08-01T06:06:22;99314.44;;;15.68;100.00
818;BME280;391;51.052;6.954;2023-08-01T06:08:25;99320.50;;;15.70;100.00
818;BME280;391;51.052;6.954;2023-08-01T06:10:29;99318.81;;;15.67;100.00
818;BME280;391;51.052;6.954;2023-08-01T06:12:31;99324.00;;;15.70;100.00
818;BME280;391;51.052;6.954;2023-08-01T06:14:35;99230.13;;;15.23;100.00
818;BME280;391;51.052;6.954;2023-08-01T06:16:38;99317.84;;;15.74;100.00
818;BME280;391;51.052;6.954;2023-08-01T06:18:43;99309.75;;;15.86;100.00
818;BME280;391;51.052;6.954;2023-08-01T06:20:47;99325.28;;;16.03;100.00
818;BME280;391;51.052;6.954;2023-08-01T06:22:50;99320.72;;;16.13;100.00
818;BME280;391;51.052;6.954;2023-08-01T06:24:54;99323.53;;;16.02;100.00
818;BME280;391;51.052;6.954;2023-08-01T06:26:57;99303.66;;;15.84;100.00
818;BME280;391;51.052;6.954;2023-08-01T06:29:01;99328.81;;;16.01;100.00
818;BME280;391;51.052;6.954;2023-08-01T06:31:04;99326.09;;;16.07;100.00
818;BME280;391;51.052;6.954;2023-08-01T06:33:08;99331.31;;;16.08;100.00
818;BME280;391;51.052;6.954;2023-08-01T06:35:12;99321.72;;;16.07;100.00
818;BME280;391;51.052;6.954;2023-08-01T06:37:15;99321.50;;;16.19;100.00
818;BME280;391;51.052;6.954;2023-08-01T06:39:19;99331.91;;;16.25;100.00
818;BME280;391;51.052;6.954;2023-08-01T06:41:22;99328.41;;;16.25;100.00
818;BME280;391;51.052;6.954;2023-08-01T06:43:26;99311.69;;;16.30;100.00
818;BME280;391;51.052;6.954;2023-08-01T06:45:30;99337.84;;;16.38;100.00
818;BME280;391;51.052;6.954;2023-08-01T06:47:33;99328.19;;;16.37;100.00
818;BME280;391;51.052;6.954;2023-08-01T06:49:37;99342.03;;;16.48;100.00
818;BME280;391;51.052;6.954;2023-08-01T06:51:42;99338.63;;;16.43;100.00
818;BME280;391;51.052;6.954;2023-08-01T06:53:45;99332.41;;;16.47;100.00
818;BME280;391;51.052;6.954;2023-08-01T06:55:49;99347.44;;;16.40;100.00
818;BME280;391;51.052;6.954;2023-08-01T06:57:53;99323.03;;;16.31;100.00
818;BME280;391;51.052;6.954;2023-08-01T06:59:56;99341.22;;;16.46;100.00
818;BME280;391;51.052;6.954;2023-08-01T07:02:00;99339.38;;;16.51;100.00
818;BME280;391;51.052;6.954;2023-08-01T07:04:03;99347.25;;;16.53;100.00
818;BME280;391;51.052;6.954;2023-08-01T07:06:07;99349.69;;;16.63;100.00
818;BME280;391;51.052;6.954;2023-08-01T07:08:12;99334.72;;;16.67;100.00
818;BME280;391;51.052;6.954;2023-08-01T07:10:15;99347.81;;;16.70;100.00
818;BME280;391;51.052;6.954;2023-08-01T07:12:19;99348.72;;;16.69;100.00
818;BME280;391;51.052;6.954;2023-08-01T07:14:22;99348.69;;;16.72;100.00
818;BME280;391;51.052;6.954;2023-08-01T07:16:25;99350.34;;;16.76;100.00
818;BME280;391;51.052;6.954;2023-08-01T07:18:29;99324.41;;;16.53;100.00
818;BME280;391;51.052;6.954;2023-08-01T07:20:32;99347.06;;;16.65;100.00
818;BME280;391;51.052;6.954;2023-08-01T07:22:36;99345.28;;;16.65;100.00
818;BME280;391;51.052;6.954;2023-08-01T07:24:41;99348.81;;;16.64;100.00
818;BME280;391;51.052;6.954;2023-08-01T07:26:44;99352.44;;;16.59;100.00
818;BME280;391;51.052;6.954;2023-08-01T07:28:47;99345.34;;;16.61;100.00
818;BME280;391;51.052;6.954;2023-08-01T07:30:58;99347.88;;;16.68;100.00
818;BME280;391;51.052;6.954;2023-08-01T07:33:01;99351.31;;;16.72;100.00
818;BME280;391;51.052;6.954;2023-08-01T07:35:06;99349.63;;;16.68;100.00
818;BME280;391;51.052;6.954;2023-08-01T07:37:09;99344.25;;;16.72;100.00
818;BME280;391;51.052;6.954;2023-08-01T07:39:12;99355.53;;;16.79;100.00
818;BME280;391;51.052;6.954;2023-08-01T07:41:17;99358.91;;;16.87;100.00
818;BME280;391;51.052;6.954;2023-08-01T07:43:21;99350.09;;;16.89;100.00
818;BME280;391;51.052;6.954;2023-08-01T07:45:25;99355.16;;;16.99;100.00
818;BME280;391;51.052;6.954;2023-08-01T07:47:29;99364.75;;;17.03;100.00
818;BME280;391;51.052;6.954;2023-08-01T07:49:33;99372.78;;;16.97;100.00
818;BME280;391;51.052;6.954;2023-08-01T07:51:36;99363.06;;;17.00;100.00
818;BME280;391;51.052;6.954;2023-08-01T07:53:40;99369.97;;;17.06;100.00
818;BME280;391;51.052;6.954;2023-08-01T07:55:43;99365.47;;;17.11;100.00
818;BME280;391;51.052;6.954;2023-08-01T07:57:48;99371.66;;;17.08;100.00
818;BME280;391;51.052;6.954;2023-08-01T07:59:51;99376.13;;;17.05;100.00
818;BME280;391;51.052;6.954;2023-08-01T08:01:55;99382.19;;;17.08;100.00
818;BME280;391;51.052;6.954;2023-08-01T08:03:58;99372.41;;;17.15;100.00
818;BME280;391;51.052;6.954;2023-08-01T08:06:04;99376.03;;;17.09;100.00
818;BME280;391;51.052;6.954;2023-08-01T08:08:08;99356.84;;;17.03;100.00
818;BME280;391;51.052;6.954;2023-08-01T08:10:12;99367.88;;;17.23;100.00
818;BME280;391;51.052;6.954;2023-08-01T08:12:16;99373.91;;;17.26;100.00
818;BME280;391;51.052;6.954;2023-08-01T08:14:21;99381.88;;;17.23;100.00
818;BME280;391;51.052;6.954;2023-08-01T08:16:25;99390.53;;;17.30;100.00
818;BME280;391;51.052;6.954;2023-08-01T08:18:29;99389.72;;;17.28;100.00
818;BME280;391;51.052;6.954;2023-08-01T08:20:40;99389.72;;;17.26;99.77
818;BME280;391;51.052;6.954;2023-08-01T08:22:44;99389.72;;;17.26;99.96
818;BME280;391;51.052;6.954;2023-08-01T08:24:48;99387.88;;;17.31;99.99
818;BME280;391;51.052;6.954;2023-08-01T08:26:51;99380.75;;;17.36;99.90
818;BME280;391;51.052;6.954;2023-08-01T08:28:55;99384.91;;;17.48;100.00
818;BME280;391;51.052;6.954;2023-08-01T08:31:00;99385.66;;;17.55;100.00
818;BME280;391;51.052;6.954;2023-08-01T08:33:05;99372.50;;;17.53;100.00
818;BME280;391;51.052;6.954;2023-08-01T08:35:10;99384.84;;;17.51;100.00
818;BME280;391;51.052;6.954;2023-08-01T08:37:15;99381.53;;;17.41;100.00
818;BME280;391;51.052;6.954;2023-08-01T08:39:18;99392.28;;;17.32;100.00
818;BME280;391;51.052;6.954;2023-08-01T08:41:26;99394.91;;;17.31;99.36
818;BME280;391;51.052;6.954;2023-08-01T08:43:31;99403.75;;;17.28;99.09
818;BME280;391;51.052;6.954;2023-08-01T08:45:35;99391.59;;;17.21;98.35
818;BME280;391;51.052;6.954;2023-08-01T08:47:42;99368.91;;;17.14;98.96
818;BME280;391;51.052;6.954;2023-08-01T08:49:48;99389.47;;;17.40;98.72
818;BME280;391;51.052;6.954;2023-08-01T08:51:52;99396.19;;;17.55;98.36
818;BME280;391;51.052;6.954;2023-08-01T08:54:00;99384.69;;;17.60;98.35
818;BME280;391;51.052;6.954;2023-08-01T08:56:05;99394.16;;;17.69;98.42
818;BME280;391;51.052;6.954;2023-08-01T08:58:11;99386.78;;;17.84;95.92
818;BME280;391;51.052;6.954;2023-08-01T09:00:15;99391.75;;;17.98;96.49
818;BME280;391;51.052;6.954;2023-08-01T09:02:22;99386.50;;;17.96;94.30
818;BME280;391;51.052;6.954;2023-08-01T09:04:28;99388.34;;;17.93;95.24
818;BME280;391;51.052;6.954;2023-08-01T09:06:34;99391.06;;;17.90;96.20
818;BME280;391;51.052;6.954;2023-08-01T09:08:39;99396.38;;;17.87;96.63
818;BME280;391;51.052;6.954;2023-08-01T09:10:43;99414.88;;;17.85;95.50
818;BME280;391;51.052;6.954;2023-08-01T09:12:47;99406.16;;;17.82;94.59
818;BME280;391;51.052;6.954;2023-08-01T09:14:51;99407.41;;;18.06;92.98
818;BME280;391;51.052;6.954;2023-08-01T09:16:54;99415.84;;;18.21;92.15
818;BME280;391;51.052;6.954;2023-08-01T09:18:58;99408.50;;;18.32;90.31
818;BME280;391;51.052;6.954;2023-08-01T09:21:02;99399.13;;;18.21;90.61
818;BME280;391;51.052;6.954;2023-08-01T09:23:08;99403.47;;;18.23;90.00
818;BME280;391;51.052;6.954;2023-08-01T09:25:11;99406.75;;;18.33;91.65
818;BME280;391;51.052;6.954;2023-08-01T09:27:15;99412.13;;;18.28;91.09
818;BME280;391;51.052;6.954;2023-08-01T09:29:20;99402.16;;;18.04;92.48
818;BME280;391;51.052;6.954;2023-08-01T09:31:26;99421.69;;;17.95;96.53
818;BME280;391;51.052;6.954;2023-08-01T09:33:38;99404.91;;;17.58;100.00
818;BME280;391;51.052;6.954;2023-08-01T09:35:42;99404.25;;;17.47;100.00
818;BME280;391;51.052;6.954;2023-08-01T09:37:48;99418.44;;;17.41;100.00
818;BME280;391;51.052;6.954;2023-08-01T09:39:53;99410.59;;;17.38;100.00
818;BME280;391;51.052;6.954;2023-08-01T09:41:57;99411.34;;;17.43;100.00
818;BME280;391;51.052;6.954;2023-08-01T09:44:00;99404.19;;;17.50;100.00
818;BME280;391;51.052;6.954;2023-08-01T09:46:06;99406.50;;;17.67;100.00
818;BME280;391;51.052;6.954;2023-08-01T09:48:21;99407.81;;;17.87;97.17
818;BME280;391;51.052;6.954;2023-08-01T09:50:24;99380.16;;;17.65;96.71
818;BME280;391;51.052;6.954;2023-08-01T09:52:27;99395.47;;;17.89;96.06
818;BME280;391;51.052;6.954;2023-08-01T09:54:32;99402.19;;;18.03;96.40
818;BME280;391;51.052;6.954;2023-08-01T09:56:36;99388.56;;;18.21;94.75
818;BME280;391;51.052;6.954;2023-08-01T09:58:41;99406.59;;;18.39;96.73
818;BME280;391;51.052;6.954;2023-08-01T10:00:45;99406.50;;;18.43;91.45
818;BME280;391;51.052;6.954;2023-08-01T10:02:50;99413.56;;;18.78;90.58
818;BME280;391;51.052;6.954;2023-08-01T10:04:57;99408.78;;;18.92;89.77
818;BME280;391;51.052;6.954;2023-08-01T10:07:05;99406.84;;;18.99;87.62
818;BME280;391;51.052;6.954;2023-08-01T10:09:10;99416.97;;;19.16;86.88
818;BME280;391;51.052;6.954;2023-08-01T10:11:17;99410.44;;;19.29;85.84
818;BME280;391;51.052;6.954;2023-08-01T10:13:23;99424.09;;;19.46;83.90
818;BME280;391;51.052;6.954;2023-08-01T10:15:28;99406.53;;;19.43;82.86
818;BME280;391;51.052;6.954;2023-08-01T10:17:34;99412.09;;;19.33;82.44
818;BME280;391;51.052;6.954;2023-08-01T10:19:41;99410.16;;;19.39;82.96
818;BME280;391;51.052;6.954;2023-08-01T10:21:47;99393.78;;;19.27;83.85
818;BME280;391;51.052;6.954;2023-08-01T10:23:51;99407.97;;;19.55;84.93
818;BME280;391;51.052;6.954;2023-08-01T10:25:54;99402.31;;;19.67;83.69
818;BME280;391;51.052;6.954;2023-08-01T10:28:00;99399.63;;;19.69;83.33
818;BME280;391;51.052;6.954;2023-08-01T10:30:04;99405.75;;;19.69;82.59
818;BME280;391;51.052;6.954;2023-08-01T10:32:09;99409.97;;;19.76;82.33
818;BME280;391;51.052;6.954;2023-08-01T10:34:13;99406.91;;;19.61;80.74
818;BME280;391;51.052;6.954;2023-08-01T10:36:18;99414.44;;;19.43;82.01
818;BME280;391;51.052;6.954;2023-08-01T10:38:22;99409.81;;;19.21;85.93
818;BME280;391;51.052;6.954;2023-08-01T10:40:33;99363.41;;;18.77;88.78
818;BME280;391;51.052;6.954;2023-08-01T10:42:39;99400.94;;;18.89;90.22
818;BME280;391;51.052;6.954;2023-08-01T10:44:46;99400.50;;;19.06;89.92
818;BME280;391;51.052;6.954;2023-08-01T10:46:51;99399.44;;;19.12;89.17
818;BME280;391;51.052;6.954;2023-08-01T10:48:55;99413.38;;;19.18;86.06
818;BME280;391;51.052;6.954;2023-08-01T10:50:58;99406.38;;;19.17;82.95
818;BME280;391;51.052;6.954;2023-08-01T10:53:07;99419.44;;;19.22;82.89
818;BME280;391;51.052;6.954;2023-08-01T10:55:13;99400.22;;;19.17;83.76
818;BME280;391;51.052;6.954;2023-08-01T10:57:17;99417.56;;;19.27;81.65
818;BME280;391;51.052;6.954;2023-08-01T10:59:21;99415.72;;;19.29;80.79
818;BME280;391;51.052;6.954;2023-08-01T11:01:26;99425.16;;;19.37;80.93
818;BME280;391;51.052;6.954;2023-08-01T11:03:36;99411.78;;;19.45;80.16
818;BME280;391;51.052;6.954;2023-08-01T11:05:40;99417.16;;;19.42;79.65
818;BME280;391;51.052;6.954;2023-08-01T11:07:53;99410.53;;;19.26;81.58
818;BME280;391;51.052;6.954;2023-08-01T11:10:07;99408.94;;;19.19;80.66
818;BME280;391;51.052;6.954;2023-08-01T11:12:12;99411.66;;;19.17;81.69
818;BME280;391;51.052;6.954;2023-08-01T11:14:16;99411.50;;;19.22;81.26
818;BME280;391;51.052;6.954;2023-08-01T11:16:18;99410.13;;;19.41;79.21
818;BME280;391;51.052;6.954;2023-08-01T11:18:23;99410.72;;;19.50;79.59
818;BME280;391;51.052;6.954;2023-08-01T11:20:27;99414.44;;;19.74;75.94
818;BME280;391;51.052;6.954;2023-08-01T11:22:31;99421.38;;;19.78;75.43
818;BME280;391;51.052;6.954;2023-08-01T11:24:34;99416.72;;;19.86;74.51
818;BME280;391;51.052;6.954;2023-08-01T11:26:40;99424.00;;;20.37;73.81